Time;durP1;ratioP1;P1;durP2;ratioP2;P2;SDS_P1;SDS_P2;PMS_P1;PMS_P2;Temp;Humidity;BMP_temperature;BMP_pressure;BME280_temperature;BME280_humidity;BME280_pressure;Samples;Min_cycle;Max_cycle;Signal;HPM_P1;HPM_P2
2023/06/16 00:01:13;;;;;;;15.48;10.70;;;19.30;99.90;;;;;;4885617;29;20044;-74
2023/06/16 00:03:49;;;;;;;15.18;11.02;;;19.20;99.90;;;;;;4916346;29;20047;-74
2023/06/16 00:06:19;;;;;;;15.90;10.73;;;19.00;99.90;;;;;;4889501;29;20056;-75
2023/06/16 00:08:54;;;;;;;15.68;11.00;;;19.00;99.90;;;;;;4898578;29;20058;-76
2023/06/16 00:11:28;;;;;;;14.82;10.07;;;19.10;99.90;;;;;;4883812;29;20506;-77
2023/06/16 00:14:21;;;;;;;18.65;10.55;;;19.10;99.90;;;;;;4908534;23;20063;-77
2023/06/16 00:17:29;;;;;;;15.32;10.45;;;19.10;99.90;;;;;;4884841;29;20127;-75
2023/06/16 00:20:03;;;;;;;11.85;9.75;;;19.00;99.90;;;;;;4894835;29;20566;-75
2023/06/16 00:22:34;;;;;;;14.82;9.45;;;18.90;99.90;;;;;;4872096;29;20072;-77
2023/06/16 00:25:07;;;;;;;13.65;9.23;;;19.00;99.90;;;;;;4892006;29;20111;-73
2023/06/16 00:27:36;;;;;;;13.07;9.90;;;19.10;99.90;;;;;;4868221;29;20064;-74
2023/06/16 00:30:05;;;;;;;14.13;9.48;;;19.20;99.90;;;;;;4866797;29;20074;-75
2023/06/16 00:32:34;;;;;;;15.55;9.98;;;19.40;99.90;;;;;;4909251;29;20108;-77
2023/06/16 00:35:10;;;;;;;10.63;7.93;;;19.40;99.90;;;;;;4874589;23;20055;-74
2023/06/16 00:38:05;;;;;;;12.18;8.00;;;19.30;99.90;;;;;;4874058;29;20049;-73
2023/06/16 00:40:38;;;;;;;12.35;8.20;;;19.30;99.90;;;;;;4872805;29;20128;-73
2023/06/16 00:43:07;;;;;;;9.50;7.38;;;19.30;99.90;;;;;;4853895;29;20044;-74
2023/06/16 00:45:39;;;;;;;;;;;19.30;99.90;;;;;;4864716;29;20045;-73
2023/06/16 00:48:07;;;;;;;9.70;7.45;;;19.40;99.90;;;;;;4879185;29;19959;-73
2023/06/16 00:50:43;;;;;;;10.68;8.27;;;19.50;99.90;;;;;;4859780;29;20065;-74
2023/06/16 00:53:10;;;;;;;10.70;8.20;;;19.50;99.90;;;;;;4856954;29;20155;-73
2023/06/16 00:55:38;;;;;;;10.80;8.05;;;19.50;99.90;;;;;;4867354;29;20056;-74
2023/06/16 00:58:06;;;;;;;10.90;7.25;;;19.50;99.90;;;;;;4876984;29;20097;-73
2023/06/16 01:00:36;;;;;;;10.15;7.50;;;19.50;99.90;;;;;;4877559;29;20101;-74
2023/06/16 01:03:04;;;;;;;11.33;6.87;;;19.40;99.90;;;;;;4887811;29;20041;-74
2023/06/16 01:05:33;;;;;;;10.60;6.53;;;19.40;99.90;;;;;;4877444;29;20052;-74
2023/06/16 01:08:09;;;;;;;11.75;8.18;;;19.40;99.90;;;;;;4887030;29;20060;-74
2023/06/16 01:10:43;;;;;;;14.05;8.35;;;19.30;99.90;;;;;;4879951;29;20045;-74
2023/06/16 01:13:20;;;;;;;12.50;8.60;;;19.30;99.90;;;;;;4880167;29;20104;-81
2023/06/16 01:15:50;;;;;;;11.95;8.05;;;19.30;99.90;;;;;;4873476;29;20036;-74
2023/06/16 01:18:22;;;;;;;11.15;7.97;;;19.40;99.90;;;;;;4854461;29;20078;-83
2023/06/16 01:20:59;;;;;;;12.43;7.88;;;19.30;99.90;;;;;;4877627;29;20283;-73
2023/06/16 01:23:50;;;;;;;12.98;8.48;;;19.30;99.90;;;;;;4887131;29;20044;-75
2023/06/16 01:26:22;;;;;;;10.98;8.32;;;19.30;99.90;;;;;;4880405;29;20060;-74
2023/06/16 01:28:51;;;;;;;12.50;7.90;;;19.30;99.90;;;;;;4851831;29;20101;-76
2023/06/16 01:31:21;;;;;;;10.18;7.60;;;19.40;99.90;;;;;;4882147;29;20398;-75
2023/06/16 01:33:50;;;;;;;10.07;7.72;;;19.40;99.90;;;;;;4860213;29;20064;-73
2023/06/16 01:36:18;;;;;;;14.30;8.25;;;19.40;99.90;;;;;;4896502;29;20044;-74
2023/06/16 01:38:46;;;;;;;10.98;8.00;;;19.40;99.90;;;;;;4897429;29;20056;-78
2023/06/16 01:41:17;;;;;;;12.30;7.63;;;19.40;99.90;;;;;;4881358;29;20135;-73
2023/06/16 01:43:45;;;;;;;11.88;8.15;;;19.40;99.90;;;;;;4875261;29;20076;-74
2023/06/16 01:46:13;;;;;;;10.77;7.88;;;19.40;99.90;;;;;;4897759;29;20048;-72
2023/06/16 01:48:41;;;;;;;12.02;8.07;;;19.40;99.90;;;;;;4894902;29;20056;-73
2023/06/16 01:51:08;;;;;;;12.75;8.77;;;19.40;99.90;;;;;;4895342;29;20131;-74
2023/06/16 01:53:35;;;;;;;12.50;8.63;;;19.30;99.90;;;;;;4896353;29;20076;-74
2023/06/16 01:56:03;;;;;;;14.68;8.43;;;19.30;99.90;;;;;;4895816;29;20403;-74
2023/06/16 01:58:31;;;;;;;13.55;8.82;;;19.40;99.90;;;;;;4878649;29;20105;-74
2023/06/16 02:01:29;;;;;;;11.57;8.25;;;19.40;99.90;;;;;;4895445;29;20040;-73
2023/06/16 02:04:15;;;;;;;13.65;8.63;;;19.50;99.90;;;;;;4898331;29;20072;-76
2023/06/16 02:07:02;;;;;;;13.57;9.02;;;19.50;99.90;;;;;;4906206;29;20051;-73
2023/06/16 02:09:32;;;;;;;13.63;8.85;;;19.40;99.90;;;;;;4899354;29;20136;-74
2023/06/16 02:12:00;;;;;;;13.55;8.68;;;19.40;99.90;;;;;;4899126;29;20047;-75
2023/06/16 02:14:28;;;;;;;12.40;8.70;;;19.40;99.90;;;;;;4899629;29;20053;-78
2023/06/16 02:20:12;;;;;;;11.90;8.32;;;19.30;99.90;;;;;;4863894;29;20056;-73
2023/06/16 02:22:40;;;;;;;11.38;8.30;;;19.30;99.90;;;;;;4864014;29;20436;-74
2023/06/16 02:25:07;;;;;;;11.88;8.82;;;19.30;99.90;;;;;;4892342;29;20049;-74
2023/06/16 02:27:35;;;;;;;12.25;8.50;;;19.30;99.90;;;;;;4874786;29;20079;-75
2023/06/16 02:30:02;;;;;;;12.23;8.35;;;19.20;99.90;;;;;;4885224;29;20044;-74
2023/06/16 02:32:29;;;;;;;12.38;8.02;;;19.20;99.90;;;;;;4886974;29;20045;-75
2023/06/16 02:34:58;;;;;;;11.55;8.13;;;19.40;99.90;;;;;;4879829;29;20040;-75
2023/06/16 02:37:27;;;;;;;14.45;8.10;;;19.40;99.90;;;;;;4880165;29;20120;-75
2023/06/16 02:39:54;;;;;;;13.93;8.32;;;19.40;99.90;;;;;;4880215;29;20461;-73
2023/06/16 02:42:21;;;;;;;13.80;8.80;;;19.40;99.90;;;;;;4891591;29;20084;-77
2023/06/16 02:44:50;;;;;;;12.68;8.48;;;19.40;99.90;;;;;;4864364;29;20058;-73
2023/06/16 02:47:18;;;;;;;11.32;9.00;;;19.40;99.90;;;;;;4898559;29;20415;-75
2023/06/16 02:50:02;;;;;;;11.50;8.07;;;19.40;99.90;;;;;;4851890;29;20033;-76
2023/06/16 02:52:30;;;;;;;11.15;8.23;;;19.40;99.90;;;;;;4880857;29;20459;-75
2023/06/16 02:54:57;;;;;;;11.65;7.53;;;19.40;99.90;;;;;;4883780;29;20043;-74
2023/06/16 02:57:24;;;;;;;12.07;8.20;;;19.40;99.90;;;;;;4891287;29;20051;-73
2023/06/16 02:59:51;;;;;;;14.00;8.25;;;19.40;99.90;;;;;;4880042;29;20128;-75
2023/06/16 03:02:19;;;;;;;13.18;7.45;;;19.30;99.90;;;;;;4879677;29;20117;-76
2023/06/16 03:04:46;;;;;;;12.75;7.95;;;19.20;99.90;;;;;;4863614;29;20041;-75
2023/06/16 03:07:14;;;;;;;10.07;7.70;;;19.20;99.90;;;;;;4862683;29;20087;-75
2023/06/16 03:09:44;;;;;;;12.40;8.07;;;19.20;99.90;;;;;;4880618;29;20403;-78
2023/06/16 03:12:15;;;;;;;10.43;7.45;;;19.20;99.90;;;;;;4849214;29;20041;-75
2023/06/16 03:14:42;;;;;;;11.73;7.55;;;19.20;99.90;;;;;;4879037;29;20487;-75
2023/06/16 03:17:12;;;;;;;11.90;8.05;;;19.20;99.90;;;;;;4847763;29;20157;-74
2023/06/16 03:19:42;;;;;;;11.52;7.82;;;19.30;99.90;;;;;;4898313;29;20104;-78
2023/06/16 03:22:09;;;;;;;11.35;7.47;;;19.30;99.90;;;;;;4886733;29;20181;-74
2023/06/16 03:24:37;;;;;;;10.75;7.68;;;19.40;99.90;;;;;;4874998;29;20052;-73
2023/06/16 03:27:08;;;;;;;12.30;7.95;;;19.40;99.90;;;;;;4897855;29;20451;-73
2023/06/16 03:29:36;;;;;;;9.73;7.75;;;19.40;99.90;;;;;;4892534;29;20083;-73
2023/06/16 03:32:07;;;;;;;13.23;7.82;;;19.30;99.90;;;;;;4898014;29;20403;-73
2023/06/16 03:34:35;;;;;;;12.02;7.72;;;19.30;99.90;;;;;;4866770;29;20060;-76
2023/06/16 03:37:05;;;;;;;11.52;7.70;;;19.30;99.90;;;;;;4876426;29;20052;-77
2023/06/16 03:39:53;;;;;;;11.20;7.50;;;19.30;99.90;;;;;;4860239;29;20554;-75
2023/06/16 03:42:20;;;;;;;15.82;8.38;;;19.30;99.90;;;;;;4904703;29;20036;-74
2023/06/16 03:44:49;;;;;;;15.82;8.70;;;19.30;99.90;;;;;;4900988;29;20040;-72
2023/06/16 03:47:16;;;;;;;12.95;7.97;;;19.20;99.90;;;;;;4888923;29;20060;-73
2023/06/16 03:49:44;;;;;;;13.63;8.57;;;19.20;99.90;;;;;;4897213;29;20251;-74
2023/06/16 03:52:11;;;;;;;14.73;8.27;;;19.30;99.90;;;;;;4897087;29;20135;-75
2023/06/16 03:54:38;;;;;;;10.98;7.57;;;19.30;99.90;;;;;;4903372;29;20100;-74
2023/06/16 03:57:06;;;;;;;13.90;8.10;;;19.40;99.90;;;;;;4892702;29;20059;-77
2023/06/16 03:59:33;;;;;;;11.77;7.70;;;19.40;99.90;;;;;;4898803;29;20501;-75
2023/06/16 04:02:06;;;;;;;12.43;8.75;;;19.40;99.90;;;;;;4881133;29;20586;-74
2023/06/16 04:04:34;;;;;;;15.45;8.48;;;19.30;99.90;;;;;;4898552;29;20092;-75
2023/06/16 04:07:03;;;;;;;13.10;8.32;;;19.30;99.90;;;;;;4898407;29;20072;-75
2023/06/16 04:09:30;;;;;;;12.43;8.65;;;19.30;99.90;;;;;;4874739;29;20060;-73
2023/06/16 04:11:58;;;;;;;10.60;8.10;;;19.40;99.90;;;;;;4894294;29;20132;-74
2023/06/16 04:14:25;;;;;;;12.45;8.27;;;19.40;99.90;;;;;;4899712;29;20048;-74
2023/06/16 04:16:53;;;;;;;11.70;8.68;;;19.40;99.90;;;;;;4912919;29;20116;-75
2023/06/16 04:19:20;;;;;;;12.82;8.20;;;19.40;99.90;;;;;;4897633;29;20099;-75
2023/06/16 04:21:59;;;;;;;15.10;8.05;;;19.40;99.90;;;;;;4882732;29;20116;-77
2023/06/16 04:25:21;;;;;;;;;;;;;;;;;;;;;
2023/06/16 04:28:13;;;;;;;11.35;7.80;;;19.40;99.90;;;;;;4873109;29;20446;-75
2023/06/16 04:30:51;;;;;;;11.27;8.40;;;19.50;99.90;;;;;;4892275;29;20052;-76
2023/06/16 04:33:22;;;;;;;13.95;8.23;;;19.50;99.90;;;;;;4909926;29;20064;-75
2023/06/16 04:35:53;;;;;;;14.40;8.75;;;19.50;99.90;;;;;;4881481;29;20582;-74
2023/06/16 04:38:31;;;;;;;10.43;7.53;;;19.50;99.90;;;;;;4896447;29;20064;-75
2023/06/16 04:41:08;;;;;;;9.63;7.25;;;19.50;99.90;;;;;;4878249;29;20060;-74
2023/06/16 04:43:37;;;;;;;13.05;8.25;;;19.40;99.90;;;;;;4880836;29;20060;-73
2023/06/16 04:46:05;;;;;;;10.43;7.65;;;19.30;99.90;;;;;;4908493;29;20553;-73
2023/06/16 04:48:33;;;;;;;11.20;7.82;;;19.20;99.90;;;;;;4884700;24;20584;-74
2023/06/16 04:51:01;;;;;;;10.23;7.05;;;19.30;99.90;;;;;;4901846;29;20119;-74
2023/06/16 04:53:28;;;;;;;9.38;7.30;;;19.30;99.90;;;;;;4933588;29;20134;-74
2023/06/16 04:56:15;;;;;;;12.07;8.07;;;19.30;99.90;;;;;;4934826;29;20521;-76
2023/06/16 04:59:25;;;;;;;58.15;39.47;;;19.40;99.90;;;;;;4897829;29;20055;-73
2023/06/16 05:01:53;;;;;;;143.90;92.97;;;19.40;99.90;;;;;;4914730;29;20053;-73
2023/06/16 05:04:21;;;;;;;107.95;69.95;;;19.40;99.90;;;;;;4915399;29;20048;-73
2023/06/16 05:06:48;;;;;;;67.53;49.15;;;19.40;99.90;;;;;;4898784;29;20051;-75
2023/06/16 05:09:15;;;;;;;75.82;50.25;;;19.50;99.90;;;;;;4919423;29;20039;-74
2023/06/16 05:11:51;;;;;;;87.05;61.03;;;19.40;99.90;;;;;;4921509;29;20048;-74
2023/06/16 05:14:21;;;;;;;48.33;35.08;;;19.50;99.90;;;;;;4899144;29;20044;-75
2023/06/16 05:16:48;;;;;;;17.13;11.82;;;19.50;99.90;;;;;;4899228;29;20055;-73
2023/06/16 05:19:16;;;;;;;13.23;8.98;;;19.50;99.90;;;;;;4915996;29;20044;-75
2023/06/16 05:21:43;;;;;;;10.32;8.30;;;19.50;99.90;;;;;;4916252;29;20063;-75
2023/06/16 05:24:10;;;;;;;11.57;8.30;;;19.40;99.90;;;;;;4915045;29;20410;-75
2023/06/16 05:26:38;;;;;;;13.00;8.98;;;19.40;99.90;;;;;;4915506;29;20447;-73
2023/06/16 05:29:05;;;;;;;10.52;8.40;;;19.40;99.90;;;;;;4902400;29;20549;-76
2023/06/16 05:31:34;;;;;;;12.02;7.97;;;19.40;99.90;;;;;;4915024;29;20040;-72
2023/06/16 05:34:02;;;;;;;14.18;8.07;;;19.40;99.90;;;;;;4915466;29;20052;-73
2023/06/16 05:36:31;;;;;;;11.35;7.70;;;19.50;99.90;;;;;;4897321;29;20430;-75
2023/06/16 05:38:58;;;;;;;11.15;7.30;;;19.40;99.90;;;;;;4915098;29;20108;-73
2023/06/16 05:41:26;;;;;;;11.90;8.00;;;19.40;99.90;;;;;;4918309;29;20108;-73
2023/06/16 05:44:15;;;;;;;11.85;8.00;;;19.40;99.90;;;;;;4902018;29;20040;-77
2023/06/16 05:47:08;;;;;;;27.90;18.00;;;19.50;99.90;;;;;;4871922;29;20044;-74
2023/06/16 05:49:35;;;;;;;46.55;33.08;;;19.40;99.90;;;;;;4921159;29;20048;-73
2023/06/16 05:52:05;;;;;;;27.00;16.88;;;19.50;99.90;;;;;;4901853;29;20439;-74
2023/06/16 05:54:32;;;;;;;11.68;9.45;;;19.60;99.90;;;;;;4919332;29;20052;-73
2023/06/16 05:57:02;;;;;;;11.65;7.68;;;19.60;99.90;;;;;;4892047;29;20059;-75
2023/06/16 05:59:31;;;;;;;10.95;7.60;;;19.50;99.90;;;;;;4903437;29;20052;-77
2023/06/16 06:05:37;;;;;;;43.78;29.88;;;19.60;99.90;;;;;;4893982;29;20056;-77
2023/06/16 06:08:59;;;;;;;14.25;10.70;;;19.70;99.90;;;;;;4860403;29;20061;-75
2023/06/16 06:11:28;;;;;;;16.27;9.48;;;19.80;99.90;;;;;;4918993;29;20059;-75
2023/06/16 06:13:55;;;;;;;15.45;8.65;;;19.90;99.90;;;;;;4917849;29;20499;-76
2023/06/16 06:16:23;;;;;;;11.00;8.27;;;19.90;99.90;;;;;;4917346;29;20487;-75
2023/06/16 06:18:51;;;;;;;11.88;8.07;;;19.80;99.90;;;;;;4987156;23;20015;-76
2023/06/16 06:21:19;;;;;;;10.48;7.43;;;19.90;99.90;;;;;;4898801;29;20037;-73
2023/06/16 06:23:47;;;;;;;11.52;8.25;;;19.90;99.90;;;;;;4900010;29;20238;-75
2023/06/16 06:26:14;;;;;;;9.70;7.10;;;19.90;99.90;;;;;;4906212;29;20084;-75
2023/06/16 06:28:45;;;;;;;12.77;8.55;;;20.00;99.90;;;;;;4869091;29;20088;-76
2023/06/16 06:31:15;;;;;;;8.95;7.20;;;20.10;99.90;;;;;;4905251;29;20087;-76
2023/06/16 06:34:54;;;;;;;11.02;7.60;;;20.20;99.90;;;;;;4896899;29;20119;-77
2023/06/16 06:37:30;;;;;;;9.45;6.45;;;20.20;99.90;;;;;;4876230;29;20041;-75
2023/06/16 06:39:58;;;;;;;10.00;7.32;;;20.40;99.90;;;;;;4901679;29;20498;-76
2023/06/16 06:42:30;;;;;;;12.13;6.78;;;20.50;99.90;;;;;;4918225;29;20042;-76
2023/06/16 06:45:27;;;;;;;10.43;6.93;;;20.80;99.90;;;;;;4879611;29;20431;-75
2023/06/16 06:48:21;;;;;;;8.95;7.32;;;20.90;99.90;;;;;;4896275;29;20041;-79
2023/06/16 06:55:49;;;;;;;8.80;6.57;;;21.20;99.90;;;;;;4908825;23;20621;-79
2023/06/16 06:59:29;;;;;;;8.73;5.23;;;21.20;99.90;;;;;;4898203;29;20581;-78
2023/06/16 07:02:17;;;;;;;9.63;5.50;;;21.20;99.90;;;;;;4896564;29;20451;-75
2023/06/16 07:05:11;;;;;;;7.15;5.45;;;21.20;99.90;;;;;;4925699;29;20383;-77
2023/06/16 07:08:04;;;;;;;9.70;5.90;;;21.30;99.90;;;;;;4857667;29;20140;-75
2023/06/16 07:10:32;;;;;;;8.07;5.25;;;21.40;99.90;;;;;;4920026;29;20104;-75
2023/06/16 07:13:01;;;;;;;8.63;5.32;;;21.50;99.90;;;;;;4910102;29;20513;-75
2023/06/16 07:15:28;;;;;;;10.07;5.85;;;21.60;99.90;;;;;;4920018;29;20048;-76
2023/06/16 07:17:58;;;;;;;8.13;5.38;;;21.60;99.90;;;;;;4918248;29;20151;-78
2023/06/16 07:24:40;;;;;;;6.95;5.05;;;21.70;99.90;;;;;;4918831;29;20032;-77
2023/06/16 07:31:12;;;;;;;6.70;4.93;;;21.70;99.90;;;;;;4916297;29;20055;-74
2023/06/16 07:33:39;;;;;;;6.85;4.60;;;21.60;99.90;;;;;;4925165;29;20048;-76
2023/06/16 07:39:53;;;;;;;7.20;4.63;;;21.60;99.90;;;;;;4919553;29;20064;-77
2023/06/16 07:45:54;;;;;;;8.27;4.82;;;21.60;99.90;;;;;;4918543;29;20147;-76
2023/06/16 07:49:37;;;;;;;8.63;5.10;;;21.60;99.90;;;;;;4881004;29;20064;-79
2023/06/16 07:52:13;;;;;;;7.00;5.22;;;21.60;99.90;;;;;;4927590;29;20075;-77
2023/06/16 07:55:08;;;;;;;7.90;4.72;;;21.60;99.90;;;;;;5105567;23;20031;-76
2023/06/16 07:57:59;;;;;;;7.05;5.10;;;21.70;99.90;;;;;;4922323;29;20214;-76
2023/06/16 08:07:54;;;;;;;6.65;4.47;;;22.00;99.90;;;;;;4912600;29;20054;-77
2023/06/16 08:10:23;;;;;;;8.15;4.65;;;21.90;99.90;;;;;;4910615;29;20051;-77
2023/06/16 08:13:08;;;;;;;6.25;4.38;;;22.00;99.90;;;;;;4923179;29;20495;-76
2023/06/16 08:16:20;;;;;;;8.27;5.07;;;22.20;99.90;;;;;;4883565;29;20053;-79
2023/06/16 08:19:21;;;;;;;8.00;4.70;;;22.50;99.90;;;;;;4851714;29;20131;-76
2023/06/16 08:22:38;;;;;;;7.97;4.88;;;22.60;99.90;;;;;;4874120;29;20053;-77
2023/06/16 08:25:06;;;;;;;8.45;4.63;;;22.60;99.90;;;;;;4851373;29;20411;-78
2023/06/16 08:28:00;;;;;;;7.93;5.90;;;22.80;99.90;;;;;;4850941;29;20057;-79
2023/06/16 08:30:27;;;;;;;11.07;5.55;;;22.80;99.90;;;;;;4867620;29;20180;-76
2023/06/16 08:33:12;;;;;;;;;;;;;;;;;;;;;
2023/06/16 08:35:58;;;;;;;6.75;4.45;;;23.00;99.90;;;;;;4870690;29;20050;-74
2023/06/16 08:38:25;;;;;;;6.30;4.47;;;23.10;99.90;;;;;;4862371;29;20096;-75
2023/06/16 08:40:52;;;;;;;10.85;4.60;;;23.10;99.90;;;;;;4874704;29;20047;-75
2023/06/16 08:43:26;;;;;;;8.63;4.65;;;22.90;99.90;;;;;;4864940;29;20045;-77
2023/06/16 08:46:19;;;;;;;9.07;4.72;;;22.80;99.90;;;;;;4852334;29;20431;-75
2023/06/16 08:48:51;;;;;;;9.57;4.80;;;22.70;99.90;;;;;;4890020;29;20103;-80
2023/06/16 08:51:50;;;;;;;6.25;4.40;;;22.70;99.90;;;;;;4846472;29;20048;-77
2023/06/16 08:54:19;;;;;;;6.85;4.57;;;22.70;99.90;;;;;;4854157;29;20064;-79
2023/06/16 08:56:51;;;;;;;6.32;4.07;;;22.70;99.90;;;;;;4927842;29;20047;-79
2023/06/16 08:59:20;;;;;;;8.45;4.90;;;22.70;99.90;;;;;;4932595;29;20056;-78
2023/06/16 09:02:04;;;;;;;7.45;4.78;;;22.90;99.90;;;;;;4926028;29;20127;-79
2023/06/16 09:04:41;;;;;;;9.20;3.90;;;23.10;99.90;;;;;;4917107;29;20044;-79
2023/06/16 09:08:31;;;;;;;5.55;3.70;;;23.20;99.90;;;;;;4894429;29;20711;-82
2023/06/16 09:11:10;;;;;;;7.82;4.03;;;23.40;99.90;;;;;;4933413;29;20040;-81
2023/06/16 09:13:42;;;;;;;6.50;4.10;;;23.50;99.90;;;;;;4915984;29;20375;-79
2023/06/16 09:16:51;;;;;;;9.45;4.40;;;23.70;99.90;;;;;;4932265;29;20050;-76
2023/06/16 09:19:21;;;;;;;7.65;4.00;;;23.80;99.90;;;;;;4920473;29;20058;-75
2023/06/16 09:25:06;;;;;;;10.55;4.20;;;24.10;99.90;;;;;;4939659;29;20094;-81
2023/06/16 09:28:13;;;;;;;7.68;4.22;;;24.10;99.90;;;;;;4925727;29;20509;-76
2023/06/16 09:31:29;;;;;;;12.25;4.60;;;24.30;99.90;;;;;;4921167;29;20055;-79
2023/06/16 09:34:28;;;;;;;9.30;3.65;;;24.50;99.90;;;;;;4911730;29;20063;-79
2023/06/16 09:37:17;;;;;;;6.10;3.45;;;24.30;99.90;;;;;;4904679;29;20107;-77
2023/06/16 09:39:52;;;;;;;6.30;3.63;;;24.20;99.90;;;;;;4904611;29;20099;-74
2023/06/16 09:42:20;;;;;;;6.93;3.40;;;23.90;99.90;;;;;;4936742;29;20047;-75
2023/06/16 09:44:48;;;;;;;6.78;3.33;;;24.00;99.90;;;;;;4937204;29;20047;-79
2023/06/16 09:47:31;;;;;;;5.95;3.63;;;23.90;99.90;;;;;;4909232;29;20059;-75
2023/06/16 09:49:59;;;;;;;8.25;3.38;;;23.70;99.90;;;;;;4929699;29;20039;-78
2023/06/16 09:52:26;;;;;;;6.97;3.22;;;23.80;99.90;;;;;;4936531;29;20520;-76
2023/06/16 09:54:56;;;;;;;9.90;4.57;;;24.00;99.90;;;;;;4935385;29;20115;-78
2023/06/16 09:57:41;;;;;;;25.25;5.72;;;23.70;99.90;;;;;;4932004;29;20074;-77
2023/06/16 10:00:18;;;;;;;7.20;3.30;;;23.40;99.90;;;;;;4923707;29;20044;-77
2023/06/16 10:02:53;;;;;;;7.72;3.58;;;23.30;99.90;;;;;;4923228;29;20044;-78
2023/06/16 10:05:30;;;;;;;11.10;3.63;;;23.10;99.90;;;;;;4920651;29;20110;-82
2023/06/16 10:08:18;;;;;;;;;;;;;;;;;;;;;
2023/06/16 10:11:11;;;;;;;7.47;3.57;;;23.10;99.90;;;;;;4957016;23;20043;-74
2023/06/16 10:13:44;;;;;;;8.93;3.75;;;22.90;99.90;;;;;;4943558;28;20380;-76
2023/06/16 10:16:15;;;;;;;6.80;3.70;;;22.90;99.90;;;;;;4928868;29;20598;-74
2023/06/16 10:18:42;;;;;;;8.02;4.18;;;23.10;99.90;;;;;;4959562;28;20676;-76
2023/06/16 10:21:14;;;;;;;6.72;3.50;;;23.10;99.90;;;;;;4917331;29;20130;-76
2023/06/16 10:24:10;;;;;;;6.22;3.70;;;23.30;99.90;;;;;;4949203;28;20043;-76
2023/06/16 10:27:34;;;;;;;7.78;5.45;;;23.30;99.90;;;;;;4962417;28;20059;-76
2023/06/16 10:30:55;;;;;;;6.57;3.45;;;23.00;99.90;;;;;;4966129;23;20048;-75
2023/06/16 10:33:25;;;;;;;6.65;3.95;;;23.00;99.90;;;;;;4928358;29;20084;-78
2023/06/16 10:36:00;;;;;;;8.27;4.13;;;22.80;99.90;;;;;;4931945;29;20051;-75
2023/06/16 10:39:06;;;;;;;7.90;4.03;;;23.00;99.90;;;;;;4928375;29;20044;-74
2023/06/16 10:41:47;;;;;;;7.97;4.07;;;23.20;99.90;;;;;;4939582;29;20403;-75
2023/06/16 10:44:29;;;;;;;8.45;4.13;;;23.20;99.90;;;;;;4939971;29;20047;-74
2023/06/16 10:47:13;;;;;;;7.20;3.47;;;23.00;99.90;;;;;;4944476;29;20099;-75
2023/06/16 10:50:00;;;;;;;8.82;3.78;;;23.00;99.90;;;;;;4909569;29;20043;-76
2023/06/16 10:53:05;;;;;;;;;;;;;;;;;;;;;
2023/06/16 10:56:05;;;;;;;9.30;4.40;;;23.30;99.90;;;;;;4939174;29;20054;-73
2023/06/16 10:58:32;;;;;;;6.75;4.43;;;23.90;99.90;;;;;;4934778;29;20553;-74
2023/06/16 11:01:21;;;;;;;10.18;4.68;;;23.80;99.90;;;;;;4928786;29;20039;-78
2023/06/16 11:03:59;;;;;;;9.40;4.95;;;23.90;99.90;;;;;;4929524;29;20040;-75
2023/06/16 11:07:12;;;;;;;9.02;5.05;;;23.50;99.90;;;;;;4901660;29;20048;-77
2023/06/16 11:10:03;;;;;;;7.32;4.80;;;23.80;99.90;;;;;;4885939;29;20049;-77
2023/06/16 11:12:40;;;;;;;9.40;4.75;;;23.40;99.90;;;;;;4909273;29;20388;-76
2023/06/16 11:15:44;;;;;;;10.40;5.13;;;23.40;99.90;;;;;;4911638;29;20052;-79
2023/06/16 11:19:02;;;;;;;9.02;4.43;;;23.20;99.90;;;;;;4883243;29;20053;-73
2023/06/16 11:21:35;;;;;;;6.72;4.20;;;23.30;99.90;;;;;;4884636;29;20060;-78
2023/06/16 11:27:22;;;;;;;9.15;4.03;;;24.10;99.90;;;;;;4883741;29;20067;-78
2023/06/16 11:30:02;;;;;;;9.05;4.22;;;24.10;99.90;;;;;;4863928;29;20051;-77
2023/06/16 11:32:42;;;;;;;11.02;4.18;;;23.80;99.90;;;;;;4853142;29;20090;-73
2023/06/16 11:35:20;;;;;;;7.60;5.28;;;23.70;99.90;;;;;;4861764;29;20045;-75
2023/06/16 11:37:52;;;;;;;9.15;5.20;;;23.40;99.90;;;;;;4867651;29;20048;-74
2023/06/16 11:40:48;;;;;;;8.00;5.00;;;23.50;99.90;;;;;;4867224;29;20048;-77
2023/06/16 11:43:39;;;;;;;9.27;5.20;;;23.00;99.90;;;;;;4860927;29;20065;-78
2023/06/16 11:46:17;;;;;;;7.65;4.95;;;23.30;99.90;;;;;;4865721;29;20056;-78
2023/06/16 11:48:50;;;;;;;;;;;23.70;99.90;;;;;;4873210;29;20059;-73
2023/06/16 11:51:27;;;;;;;7.70;4.97;;;23.80;99.90;;;;;;4889296;29;19931;-76
2023/06/16 11:54:02;;;;;;;8.85;5.05;;;24.00;99.90;;;;;;4900090;29;20044;-72
2023/06/16 11:56:33;;;;;;;11.27;5.53;;;23.90;99.90;;;;;;4905884;29;20095;-76
2023/06/16 11:59:10;;;;;;;9.55;5.55;;;23.30;99.90;;;;;;4907046;29;20398;-72
2023/06/16 12:01:48;;;;;;;8.00;5.13;;;23.30;99.90;;;;;;4888786;29;20051;-76
2023/06/16 12:04:19;;;;;;;8.10;5.32;;;23.20;99.90;;;;;;4900890;29;20048;-72
2023/06/16 12:06:48;;;;;;;8.75;5.03;;;23.00;99.90;;;;;;4913816;29;20043;-75
2023/06/16 12:09:20;;;;;;;10.13;4.82;;;23.60;99.90;;;;;;4908413;29;20068;-77
2023/06/16 12:11:49;;;;;;;9.52;5.88;;;23.60;99.90;;;;;;4904256;29;20128;-73
2023/06/16 12:14:21;;;;;;;10.70;5.20;;;24.00;99.90;;;;;;4886080;29;20078;-79
2023/06/16 12:16:52;;;;;;;8.88;6.32;;;24.30;99.90;;;;;;4888810;29;20131;-72
2023/06/16 12:19:28;;;;;;;6.82;4.90;;;23.60;99.90;;;;;;4947879;23;20036;-80
2023/06/16 12:22:03;;;;;;;8.82;4.72;;;23.40;99.90;;;;;;4909327;29;20052;-73
2023/06/16 12:24:32;;;;;;;8.65;5.05;;;23.30;99.90;;;;;;4923168;29;20036;-72
2023/06/16 12:27:03;;;;;;;9.77;5.35;;;23.00;99.90;;;;;;4921337;29;20043;-78
2023/06/16 12:29:35;;;;;;;9.38;5.10;;;22.90;99.90;;;;;;4907758;29;20520;-78
2023/06/16 12:32:12;;;;;;;9.30;5.22;;;23.10;99.90;;;;;;4893495;29;20048;-74
2023/06/16 12:34:40;;;;;;;8.25;4.63;;;23.10;99.90;;;;;;4928967;29;20115;-77
2023/06/16 12:37:10;;;;;;;9.75;5.13;;;23.10;99.90;;;;;;4922014;29;20103;-76
2023/06/16 12:39:57;;;;;;;6.85;4.60;;;22.80;99.90;;;;;;4902387;29;20039;-75
2023/06/16 12:42:29;;;;;;;13.25;6.68;;;22.80;99.90;;;;;;4900868;29;20044;-75
2023/06/16 12:45:02;;;;;;;7.32;5.00;;;22.40;99.90;;;;;;4901601;29;20090;-72
2023/06/16 12:47:33;;;;;;;7.13;4.60;;;22.40;99.90;;;;;;4933078;29;20443;-78
2023/06/16 12:50:04;;;;;;;9.65;5.00;;;22.60;99.90;;;;;;4938400;23;20059;-73
2023/06/16 12:52:31;;;;;;;;;;;22.30;99.90;;;;;;4919670;29;20063;-76
2023/06/16 12:55:00;;;;;;;6.90;4.45;;;22.30;99.90;;;;;;4923627;29;19991;-73
2023/06/16 12:57:29;;;;;;;9.02;4.72;;;22.30;99.90;;;;;;4916778;23;20040;-77
2023/06/16 13:00:08;;;;;;;7.78;4.70;;;22.20;99.90;;;;;;4905430;29;20116;-74
2023/06/16 13:02:36;;;;;;;7.78;4.72;;;22.20;99.90;;;;;;4896162;29;20056;-78
2023/06/16 13:05:04;;;;;;;9.75;4.97;;;22.40;99.90;;;;;;4909055;29;20436;-73
2023/06/16 13:07:33;;;;;;;8.05;4.80;;;22.40;99.90;;;;;;4887819;29;20053;-75
2023/06/16 13:10:00;;;;;;;6.88;4.63;;;22.60;99.90;;;;;;4909289;29;20109;-73
2023/06/16 13:12:28;;;;;;;7.88;4.78;;;22.50;99.90;;;;;;4913414;29;20050;-76
2023/06/16 13:14:59;;;;;;;8.13;4.80;;;22.20;99.90;;;;;;4911927;29;20044;-76
2023/06/16 13:17:30;;;;;;;10.30;4.45;;;22.00;99.90;;;;;;4890626;29;20055;-77
2023/06/16 13:19:59;;;;;;;7.13;4.35;;;21.70;99.90;;;;;;4904321;29;20045;-78
2023/06/16 13:22:28;;;;;;;7.25;4.88;;;21.60;99.90;;;;;;4906987;29;20037;-76
2023/06/16 13:24:59;;;;;;;8.32;5.40;;;21.40;99.90;;;;;;4897196;29;20048;-76
2023/06/16 13:27:32;;;;;;;7.65;4.97;;;21.30;99.90;;;;;;4957541;23;20055;-76
2023/06/16 13:30:46;;;;;;;6.97;5.13;;;21.10;99.90;;;;;;4935095;23;20130;-80
2023/06/16 13:33:25;;;;;;;8.38;5.82;;;20.80;99.90;;;;;;4938286;29;20054;-77
2023/06/16 13:35:56;;;;;;;7.95;5.80;;;20.70;99.90;;;;;;4945486;28;20047;-76
2023/06/16 13:38:44;;;;;;;7.28;5.38;;;20.80;99.90;;;;;;4946919;23;20081;-78
2023/06/16 13:41:58;;;;;;;8.13;6.00;;;20.80;99.90;;;;;;4886792;29;20048;-76
2023/06/16 13:44:49;;;;;;;15.90;5.88;;;20.60;99.90;;;;;;4903113;29;20040;-79
2023/06/16 13:47:19;;;;;;;9.57;6.03;;;20.30;99.90;;;;;;4911874;29;20047;-76
2023/06/16 13:50:25;;;;;;;7.57;5.28;;;20.10;99.90;;;;;;4908807;29;20300;-79
2023/06/16 13:53:29;;;;;;;8.25;5.97;;;20.10;99.90;;;;;;4881500;29;20040;-77
2023/06/16 13:56:14;;;;;;;8.15;5.88;;;20.40;99.90;;;;;;4898078;29;20651;-76
2023/06/16 13:58:41;;;;;;;14.07;7.38;;;20.60;99.90;;;;;;4911371;29;20380;-74
2023/06/16 14:01:09;;;;;;;16.08;7.15;;;20.70;99.90;;;;;;4897096;29;20055;-77
2023/06/16 14:03:39;;;;;;;13.32;7.25;;;20.60;99.90;;;;;;4916734;29;20051;-78
2023/06/16 14:06:07;;;;;;;9.60;5.90;;;20.40;99.90;;;;;;4878427;29;20059;-77
2023/06/16 14:08:34;;;;;;;9.40;6.35;;;20.30;99.90;;;;;;4909663;29;20048;-79
2023/06/16 14:11:02;;;;;;;11.32;6.40;;;20.40;99.90;;;;;;4872598;29;20049;-76
2023/06/16 14:13:29;;;;;;;11.55;6.35;;;20.10;99.90;;;;;;4902426;29;20068;-77
2023/06/16 14:16:12;;;;;;;10.32;6.55;;;20.00;99.90;;;;;;4909379;29;20470;-77